sensor_id;sensor_type;location;lat;lon;timestamp;P1;durP1;ratioP1;P2;durP2;ratioP2
52106;SDS011;38105;52.968;5.974;2022-10-19T00:00:47;2.58;;;0.30;;
52106;SDS011;38105;52.968;5.974;2022-10-19T00:03:13;2.70;;;0.30;;
52106;SDS011;38105;52.968;5.974;2022-10-19T00:05:39;5.00;;;0.70;;
52106;SDS011;38105;52.968;5.974;2022-10-19T00:08:05;4.07;;;0.40;;
52106;SDS011;38105;52.968;5.974;2022-10-19T00:10:31;2.50;;;0.55;;
52106;SDS011;38105;52.968;5.974;2022-10-19T00:12:59;5.25;;;0.60;;
52106;SDS011;38105;52.968;5.974;2022-10-19T00:15:25;6.25;;;1.00;;
52106;SDS011;38105;52.968;5.974;2022-10-19T00:17:51;3.10;;;0.50;;
52106;SDS011;38105;52.968;5.974;2022-10-19T00:20:16;4.82;;;0.50;;
52106;SDS011;38105;52.968;5.974;2022-10-19T00:22:42;3.10;;;0.20;;
52106;SDS011;38105;52.968;5.974;2022-10-19T00:25:08;4.00;;;0.50;;
52106;SDS011;38105;52.968;5.974;2022-10-19T00:27:33;1.77;;;0.40;;
52106;SDS011;38105;52.968;5.974;2022-10-19T00:29:59;3.42;;;0.47;;
52106;SDS011;38105;52.968;5.974;2022-10-19T00:32:25;5.38;;;0.98;;
52106;SDS011;38105;52.968;5.974;2022-10-19T00:34:51;3.83;;;0.52;;
52106;SDS011;38105;52.968;5.974;2022-10-19T00:37:17;7.70;;;0.77;;
52106;SDS011;38105;52.968;5.974;2022-10-19T00:39:42;5.88;;;0.60;;
52106;SDS011;38105;52.968;5.974;2022-10-19T00:42:11;3.88;;;1.00;;
52106;SDS011;38105;52.968;5.974;2022-10-19T00:47:04;6.03;;;0.30;;
52106;SDS011;38105;52.968;5.974;2022-10-19T00:49:35;4.78;;;0.95;;
52106;SDS011;38105;52.968;5.974;2022-10-19T00:52:05;3.78;;;0.70;;
52106;SDS011;38105;52.968;5.974;2022-10-19T00:54:35;4.72;;;0.70;;
52106;SDS011;38105;52.968;5.974;2022-10-19T00:57:04;4.45;;;0.65;;
52106;SDS011;38105;52.968;5.974;2022-10-19T00:59:30;6.88;;;0.90;;
52106;SDS011;38105;52.968;5.974;2022-10-19T01:01:57;2.67;;;0.73;;
52106;SDS011;38105;52.968;5.974;2022-10-19T01:04:24;5.63;;;0.70;;
52106;SDS011;38105;52.968;5.974;2022-10-19T01:06:51;4.78;;;0.77;;
52106;SDS011;38105;52.968;5.974;2022-10-19T01:09:18;3.75;;;0.98;;
52106;SDS011;38105;52.968;5.974;2022-10-19T01:17:16;6.20;;;0.95;;
52106;SDS011;38105;52.968;5.974;2022-10-19T01:28:38;6.18;;;0.90;;
52106;SDS011;38105;52.968;5.974;2022-10-19T01:39:16;11.70;;;1.23;;
52106;SDS011;38105;52.968;5.974;2022-10-19T01:47:13;6.07;;;1.55;;
52106;SDS011;38105;52.968;5.974;2022-10-19T01:49:48;7.18;;;1.50;;
52106;SDS011;38105;52.968;5.974;2022-10-19T01:52:19;8.40;;;1.73;;
52106;SDS011;38105;52.968;5.974;2022-10-19T01:54:57;7.85;;;1.80;;
52106;SDS011;38105;52.968;5.974;2022-10-19T01:57:27;6.60;;;1.60;;
52106;SDS011;38105;52.968;5.974;2022-10-19T01:59:56;12.35;;;1.80;;
52106;SDS011;38105;52.968;5.974;2022-10-19T02:02:23;8.15;;;1.83;;
52106;SDS011;38105;52.968;5.974;2022-10-19T02:04:51;9.60;;;1.50;;
52106;SDS011;38105;52.968;5.974;2022-10-19T02:07:19;5.10;;;1.30;;
52106;SDS011;38105;52.968;5.974;2022-10-19T02:09:46;8.63;;;1.65;;
52106;SDS011;38105;52.968;5.974;2022-10-19T02:12:12;5.32;;;1.40;;
52106;SDS011;38105;52.968;5.974;2022-10-19T02:14:43;6.78;;;1.45;;
52106;SDS011;38105;52.968;5.974;2022-10-19T02:17:14;7.18;;;1.30;;
52106;SDS011;38105;52.968;5.974;2022-10-19T02:19:44;7.65;;;1.33;;
52106;SDS011;38105;52.968;5.974;2022-10-19T02:22:12;6.85;;;1.77;;
52106;SDS011;38105;52.968;5.974;2022-10-19T02:24:38;6.55;;;1.75;;
52106;SDS011;38105;52.968;5.974;2022-10-19T02:27:04;7.32;;;1.77;;
52106;SDS011;38105;52.968;5.974;2022-10-19T02:29:32;7.35;;;1.58;;
52106;SDS011;38105;52.968;5.974;2022-10-19T02:31:59;5.43;;;2.10;;
52106;SDS011;38105;52.968;5.974;2022-10-19T02:34:25;6.95;;;1.58;;
52106;SDS011;38105;52.968;5.974;2022-10-19T02:36:51;5.70;;;1.60;;
52106;SDS011;38105;52.968;5.974;2022-10-19T02:39:17;7.82;;;1.48;;
52106;SDS011;38105;52.968;5.974;2022-10-19T02:41:54;6.68;;;1.60;;
52106;SDS011;38105;52.968;5.974;2022-10-19T02:44:30;7.78;;;2.08;;
52106;SDS011;38105;52.968;5.974;2022-10-19T02:47:08;6.85;;;1.58;;
52106;SDS011;38105;52.968;5.974;2022-10-19T02:49:39;5.40;;;1.30;;
52106;SDS011;38105;52.968;5.974;2022-10-19T02:52:08;7.30;;;1.35;;
52106;SDS011;38105;52.968;5.974;2022-10-19T02:54:37;5.30;;;1.48;;
52106;SDS011;38105;52.968;5.974;2022-10-19T02:57:08;5.03;;;1.65;;
52106;SDS011;38105;52.968;5.974;2022-10-19T02:59:43;5.95;;;1.90;;
52106;SDS011;38105;52.968;5.974;2022-10-19T03:02:09;18.20;;;1.83;;
52106;SDS011;38105;52.968;5.974;2022-10-19T03:04:35;9.05;;;1.70;;
52106;SDS011;38105;52.968;5.974;2022-10-19T03:07:00;4.10;;;1.40;;
52106;SDS011;38105;52.968;5.974;2022-10-19T03:09:26;6.47;;;1.70;;
52106;SDS011;38105;52.968;5.974;2022-10-19T03:11:51;3.33;;;1.05;;
52106;SDS011;38105;52.968;5.974;2022-10-19T03:14:19;5.65;;;1.60;;
52106;SDS011;38105;52.968;5.974;2022-10-19T03:16:45;8.00;;;2.35;;
52106;SDS011;38105;52.968;5.974;2022-10-19T03:19:10;9.63;;;1.60;;
52106;SDS011;38105;52.968;5.974;2022-10-19T03:21:36;6.22;;;1.95;;
52106;SDS011;38105;52.968;5.974;2022-10-19T03:24:02;9.48;;;2.00;;
52106;SDS011;38105;52.968;5.974;2022-10-19T03:26:28;7.15;;;1.85;;
52106;SDS011;38105;52.968;5.974;2022-10-19T03:28:53;3.83;;;1.63;;
52106;SDS011;38105;52.968;5.974;2022-10-19T03:31:19;5.53;;;1.77;;
52106;SDS011;38105;52.968;5.974;2022-10-19T03:33:45;5.25;;;2.10;;
52106;SDS011;38105;52.968;5.974;2022-10-19T03:36:14;7.38;;;2.05;;
52106;SDS011;38105;52.968;5.974;2022-10-19T03:38:45;7.22;;;2.00;;
52106;SDS011;38105;52.968;5.974;2022-10-19T03:41:11;5.70;;;1.98;;
52106;SDS011;38105;52.968;5.974;2022-10-19T03:43:37;4.85;;;1.92;;
52106;SDS011;38105;52.968;5.974;2022-10-19T03:46:02;6.45;;;1.58;;
52106;SDS011;38105;52.968;5.974;2022-10-19T03:48:28;7.72;;;2.00;;
52106;SDS011;38105;52.968;5.974;2022-10-19T03:51:01;5.50;;;1.90;;
52106;SDS011;38105;52.968;5.974;2022-10-19T03:53:33;8.38;;;1.80;;
52106;SDS011;38105;52.968;5.974;2022-10-19T03:56:06;8.35;;;2.15;;
52106;SDS011;38105;52.968;5.974;2022-10-19T03:58:35;8.90;;;2.03;;
52106;SDS011;38105;52.968;5.974;2022-10-19T04:01:04;5.90;;;1.80;;
52106;SDS011;38105;52.968;5.974;2022-10-19T04:03:32;8.00;;;2.08;;
52106;SDS011;38105;52.968;5.974;2022-10-19T04:06:01;4.72;;;1.73;;
52106;SDS011;38105;52.968;5.974;2022-10-19T04:08:31;6.75;;;1.60;;
52106;SDS011;38105;52.968;5.974;2022-10-19T04:11:01;7.68;;;2.15;;
52106;SDS011;38105;52.968;5.974;2022-10-19T04:13:31;8.73;;;2.15;;
52106;SDS011;38105;52.968;5.974;2022-10-19T04:15:58;6.05;;;1.75;;
52106;SDS011;38105;52.968;5.974;2022-10-19T04:18:23;6.22;;;1.60;;
52106;SDS011;38105;52.968;5.974;2022-10-19T04:20:56;8.98;;;1.83;;
52106;SDS011;38105;52.968;5.974;2022-10-19T04:23:23;5.93;;;1.80;;
52106;SDS011;38105;52.968;5.974;2022-10-19T04:25:58;7.45;;;1.88;;
52106;SDS011;38105;52.968;5.974;2022-10-19T04:28:24;7.72;;;1.80;;
52106;SDS011;38105;52.968;5.974;2022-10-19T04:30:50;8.55;;;2.03;;
52106;SDS011;38105;52.968;5.974;2022-10-19T04:33:15;27.50;;;19.25;;
52106;SDS011;38105;52.968;5.974;2022-10-19T04:35:41;8.05;;;2.70;;
52106;SDS011;38105;52.968;5.974;2022-10-19T04:38:06;3.03;;;1.60;;
52106;SDS011;38105;52.968;5.974;2022-10-19T04:40:35;8.52;;;3.15;;
52106;SDS011;38105;52.968;5.974;2022-10-19T04:43:02;8.63;;;3.22;;
52106;SDS011;38105;52.968;5.974;2022-10-19T04:45:28;9.02;;;2.60;;
52106;SDS011;38105;52.968;5.974;2022-10-19T04:47:54;7.47;;;2.90;;
52106;SDS011;38105;52.968;5.974;2022-10-19T04:50:23;13.02;;;3.22;;
52106;SDS011;38105;52.968;5.974;2022-10-19T04:52:49;9.13;;;4.90;;
52106;SDS011;38105;52.968;5.974;2022-10-19T04:55:15;8.00;;;2.40;;
52106;SDS011;38105;52.968;5.974;2022-10-19T04:57:41;8.70;;;2.58;;
52106;SDS011;38105;52.968;5.974;2022-10-19T05:00:07;7.05;;;2.70;;
52106;SDS011;38105;52.968;5.974;2022-10-19T05:02:33;8.18;;;3.40;;
52106;SDS011;38105;52.968;5.974;2022-10-19T05:04:59;5.22;;;2.20;;
52106;SDS011;38105;52.968;5.974;2022-10-19T05:07:24;8.48;;;3.40;;
52106;SDS011;38105;52.968;5.974;2022-10-19T05:09:50;10.57;;;2.53;;
52106;SDS011;38105;52.968;5.974;2022-10-19T05:12:16;9.30;;;2.05;;
52106;SDS011;38105;52.968;5.974;2022-10-19T05:14:41;10.30;;;2.28;;
52106;SDS011;38105;52.968;5.974;2022-10-19T05:17:07;10.98;;;2.03;;
52106;SDS011;38105;52.968;5.974;2022-10-19T05:19:33;6.72;;;1.73;;
52106;SDS011;38105;52.968;5.974;2022-10-19T05:21:58;9.93;;;2.10;;
52106;SDS011;38105;52.968;5.974;2022-10-19T05:24:24;9.00;;;2.42;;
52106;SDS011;38105;52.968;5.974;2022-10-19T05:26:49;8.55;;;1.83;;
52106;SDS011;38105;52.968;5.974;2022-10-19T05:29:15;11.70;;;2.33;;
52106;SDS011;38105;52.968;5.974;2022-10-19T05:31:41;7.22;;;1.67;;
52106;SDS011;38105;52.968;5.974;2022-10-19T05:34:06;5.03;;;2.20;;
52106;SDS011;38105;52.968;5.974;2022-10-19T05:36:33;9.95;;;2.40;;
52106;SDS011;38105;52.968;5.974;2022-10-19T05:39:14;12.98;;;2.15;;
52106;SDS011;38105;52.968;5.974;2022-10-19T05:41:44;10.95;;;2.13;;
52106;SDS011;38105;52.968;5.974;2022-10-19T05:44:17;15.70;;;2.67;;
52106;SDS011;38105;52.968;5.974;2022-10-19T05:46:46;9.55;;;2.38;;
52106;SDS011;38105;52.968;5.974;2022-10-19T05:49:13;15.63;;;4.30;;
52106;SDS011;38105;52.968;5.974;2022-10-19T05:51:39;13.00;;;5.28;;
52106;SDS011;38105;52.968;5.974;2022-10-19T05:54:05;10.13;;;3.92;;
52106;SDS011;38105;52.968;5.974;2022-10-19T05:56:35;17.48;;;4.65;;
52106;SDS011;38105;52.968;5.974;2022-10-19T05:59:03;14.40;;;2.70;;
52106;SDS011;38105;52.968;5.974;2022-10-19T06:01:30;11.52;;;2.70;;
52106;SDS011;38105;52.968;5.974;2022-10-19T06:03:57;8.82;;;2.40;;
52106;SDS011;38105;52.968;5.974;2022-10-19T06:06:23;15.13;;;2.25;;
52106;SDS011;38105;52.968;5.974;2022-10-19T06:08:50;13.50;;;2.13;;
52106;SDS011;38105;52.968;5.974;2022-10-19T06:11:17;15.02;;;2.33;;
52106;SDS011;38105;52.968;5.974;2022-10-19T06:13:48;12.40;;;2.45;;
52106;SDS011;38105;52.968;5.974;2022-10-19T06:16:15;10.43;;;1.80;;
52106;SDS011;38105;52.968;5.974;2022-10-19T06:18:42;13.65;;;2.25;;
52106;SDS011;38105;52.968;5.974;2022-10-19T06:21:12;15.73;;;2.15;;
52106;SDS011;38105;52.968;5.974;2022-10-19T06:23:39;6.95;;;1.58;;
52106;SDS011;38105;52.968;5.974;2022-10-19T06:26:12;13.50;;;2.17;;
52106;SDS011;38105;52.968;5.974;2022-10-19T06:31:05;13.13;;;2.08;;
52106;SDS011;38105;52.968;5.974;2022-10-19T06:33:31;17.60;;;2.15;;
52106;SDS011;38105;52.968;5.974;2022-10-19T06:36:40;16.48;;;2.38;;
52106;SDS011;38105;52.968;5.974;2022-10-19T06:38:48;9.10;;;1.80;;
52106;SDS011;38105;52.968;5.974;2022-10-19T06:41:14;14.00;;;2.45;;
52106;SDS011;38105;52.968;5.974;2022-10-19T06:43:40;12.73;;;1.85;;
52106;SDS011;38105;52.968;5.974;2022-10-19T06:46:11;16.42;;;2.20;;
52106;SDS011;38105;52.968;5.974;2022-10-19T06:48:39;11.00;;;1.50;;
52106;SDS011;38105;52.968;5.974;2022-10-19T06:51:05;10.68;;;2.08;;
52106;SDS011;38105;52.968;5.974;2022-10-19T06:53:34;14.07;;;1.92;;
52106;SDS011;38105;52.968;5.974;2022-10-19T06:56:01;12.30;;;2.13;;
52106;SDS011;38105;52.968;5.974;2022-10-19T06:58:28;10.02;;;1.85;;
52106;SDS011;38105;52.968;5.974;2022-10-19T07:00:58;9.38;;;1.75;;
52106;SDS011;38105;52.968;5.974;2022-10-19T07:03:25;14.18;;;2.08;;
52106;SDS011;38105;52.968;5.974;2022-10-19T07:05:56;13.50;;;2.42;;
52106;SDS011;38105;52.968;5.974;2022-10-19T07:08:23;20.30;;;2.63;;
52106;SDS011;38105;52.968;5.974;2022-10-19T07:10:54;14.82;;;2.13;;
52106;SDS011;38105;52.968;5.974;2022-10-19T07:13:22;9.85;;;1.70;;
52106;SDS011;38105;52.968;5.974;2022-10-19T07:15:48;14.80;;;2.10;;
52106;SDS011;38105;52.968;5.974;2022-10-19T07:18:14;12.90;;;2.17;;
52106;SDS011;38105;52.968;5.974;2022-10-19T07:20:40;14.70;;;2.05;;
52106;SDS011;38105;52.968;5.974;2022-10-19T07:23:06;16.02;;;2.30;;
52106;SDS011;38105;52.968;5.974;2022-10-19T07:25:32;14.98;;;2.25;;
52106;SDS011;38105;52.968;5.974;2022-10-19T07:27:57;13.48;;;2.05;;
52106;SDS011;38105;52.968;5.974;2022-10-19T07:30:23;17.05;;;2.15;;
52106;SDS011;38105;52.968;5.974;2022-10-19T07:32:49;15.18;;;1.70;;
52106;SDS011;38105;52.968;5.974;2022-10-19T07:35:14;15.90;;;1.95;;
52106;SDS011;38105;52.968;5.974;2022-10-19T07:37:40;16.15;;;2.95;;
52106;SDS011;38105;52.968;5.974;2022-10-19T07:40:06;16.95;;;1.90;;
52106;SDS011;38105;52.968;5.974;2022-10-19T07:42:32;11.07;;;1.73;;
52106;SDS011;38105;52.968;5.974;2022-10-19T07:44:58;13.25;;;2.08;;
52106;SDS011;38105;52.968;5.974;2022-10-19T07:47:24;18.05;;;2.10;;
52106;SDS011;38105;52.968;5.974;2022-10-19T07:49:50;14.13;;;1.67;;
52106;SDS011;38105;52.968;5.974;2022-10-19T07:52:15;12.77;;;2.08;;
52106;SDS011;38105;52.968;5.974;2022-10-19T07:54:41;11.57;;;1.73;;
52106;SDS011;38105;52.968;5.974;2022-10-19T07:57:06;11.95;;;1.60;;
52106;SDS011;38105;52.968;5.974;2022-10-19T07:59:34;15.40;;;1.88;;
52106;SDS011;38105;52.968;5.974;2022-10-19T08:02:00;13.82;;;2.65;;
52106;SDS011;38105;52.968;5.974;2022-10-19T08:04:28;16.50;;;2.20;;
52106;SDS011;38105;52.968;5.974;2022-10-19T08:06:54;15.75;;;1.67;;
52106;SDS011;38105;52.968;5.974;2022-10-19T08:09:19;17.27;;;2.03;;
52106;SDS011;38105;52.968;5.974;2022-10-19T08:11:45;14.38;;;2.10;;
52106;SDS011;38105;52.968;5.974;2022-10-19T08:14:11;15.02;;;2.00;;
52106;SDS011;38105;52.968;5.974;2022-10-19T08:16:37;16.13;;;2.47;;
52106;SDS011;38105;52.968;5.974;2022-10-19T08:19:06;10.45;;;2.00;;
52106;SDS011;38105;52.968;5.974;2022-10-19T08:21:34;13.73;;;2.80;;
52106;SDS011;38105;52.968;5.974;2022-10-19T08:24:00;9.93;;;1.73;;
52106;SDS011;38105;52.968;5.974;2022-10-19T08:26:30;14.98;;;1.85;;
52106;SDS011;38105;52.968;5.974;2022-10-19T08:28:58;9.95;;;1.80;;
52106;SDS011;38105;52.968;5.974;2022-10-19T08:31:28;18.17;;;2.70;;
52106;SDS011;38105;52.968;5.974;2022-10-19T08:33:54;13.27;;;2.40;;
52106;SDS011;38105;52.968;5.974;2022-10-19T08:36:20;14.82;;;2.50;;
52106;SDS011;38105;52.968;5.974;2022-10-19T08:38:46;15.52;;;2.78;;
52106;SDS011;38105;52.968;5.974;2022-10-19T08:41:20;9.85;;;1.90;;
52106;SDS011;38105;52.968;5.974;2022-10-19T08:49:42;14.63;;;1.77;;
52106;SDS011;38105;52.968;5.974;2022-10-19T08:52:10;15.82;;;1.80;;
52106;SDS011;38105;52.968;5.974;2022-10-19T08:54:42;14.40;;;2.17;;
52106;SDS011;38105;52.968;5.974;2022-10-19T09:00:02;12.90;;;1.63;;
52106;SDS011;38105;52.968;5.974;2022-10-19T09:05:31;10.85;;;2.08;;
52106;SDS011;38105;52.968;5.974;2022-10-19T09:08:17;12.20;;;1.35;;
52106;SDS011;38105;52.968;5.974;2022-10-19T09:10:45;16.13;;;2.13;;
52106;SDS011;38105;52.968;5.974;2022-10-19T09:13:30;11.23;;;1.90;;
52106;SDS011;38105;52.968;5.974;2022-10-19T09:16:01;13.77;;;1.92;;
52106;SDS011;38105;52.968;5.974;2022-10-19T09:18:29;13.13;;;1.80;;
52106;SDS011;38105;52.968;5.974;2022-10-19T09:20:57;11.77;;;1.80;;
52106;SDS011;38105;52.968;5.974;2022-10-19T09:25:54;15.10;;;2.00;;
52106;SDS011;38105;52.968;5.974;2022-10-19T09:28:28;16.35;;;1.75;;
52106;SDS011;38105;52.968;5.974;2022-10-19T09:31:02;14.85;;;1.88;;
52106;SDS011;38105;52.968;5.974;2022-10-19T09:33:31;9.30;;;1.52;;
52106;SDS011;38105;52.968;5.974;2022-10-19T09:36:00;15.52;;;1.75;;
52106;SDS011;38105;52.968;5.974;2022-10-19T09:38:29;10.30;;;1.67;;
52106;SDS011;38105;52.968;5.974;2022-10-19T09:41:17;9.95;;;1.60;;
52106;SDS011;38105;52.968;5.974;2022-10-19T09:43:52;16.83;;;1.55;;
52106;SDS011;38105;52.968;5.974;2022-10-19T09:46:30;8.80;;;1.48;;
52106;SDS011;38105;52.968;5.974;2022-10-19T09:49:40;11.82;;;1.55;;
52106;SDS011;38105;52.968;5.974;2022-10-19T09:52:23;13.52;;;2.38;;
52106;SDS011;38105;52.968;5.974;2022-10-19T09:57:45;10.32;;;1.70;;
52106;SDS011;38105;52.968;5.974;2022-10-19T10:02:48;12.15;;;1.88;;
52106;SDS011;38105;52.968;5.974;2022-10-19T10:05:29;7.13;;;1.23;;
52106;SDS011;38105;52.968;5.974;2022-10-19T10:07:58;10.98;;;1.60;;
52106;SDS011;38105;52.968;5.974;2022-10-19T10:10:29;11.27;;;1.55;;
52106;SDS011;38105;52.968;5.974;2022-10-19T10:13:01;8.63;;;1.35;;
52106;SDS011;38105;52.968;5.974;2022-10-19T10:15:28;8.90;;;1.38;;
52106;SDS011;38105;52.968;5.974;2022-10-19T10:18:00;11.55;;;1.33;;
52106;SDS011;38105;52.968;5.974;2022-10-19T10:20:30;9.07;;;1.45;;
52106;SDS011;38105;52.968;5.974;2022-10-19T10:23:03;11.60;;;1.45;;
52106;SDS011;38105;52.968;5.974;2022-10-19T10:25:31;13.60;;;1.40;;
52106;SDS011;38105;52.968;5.974;2022-10-19T10:28:00;15.75;;;1.30;;
52106;SDS011;38105;52.968;5.974;2022-10-19T10:30:46;9.20;;;1.30;;
52106;SDS011;38105;52.968;5.974;2022-10-19T10:33:22;13.13;;;1.42;;
52106;SDS011;38105;52.968;5.974;2022-10-19T10:35:52;8.05;;;1.20;;
52106;SDS011;38105;52.968;5.974;2022-10-19T10:38:25;8.73;;;1.40;;
52106;SDS011;38105;52.968;5.974;2022-10-19T10:41:04;10.70;;;1.77;;
52106;SDS011;38105;52.968;5.974;2022-10-19T10:43:37;7.00;;;1.27;;
52106;SDS011;38105;52.968;5.974;2022-10-19T10:46:33;9.45;;;1.50;;
52106;SDS011;38105;52.968;5.974;2022-10-19T10:49:05;8.02;;;1.40;;
52106;SDS011;38105;52.968;5.974;2022-10-19T10:51:43;11.60;;;1.50;;
52106;SDS011;38105;52.968;5.974;2022-10-19T10:54:18;10.40;;;1.63;;
52106;SDS011;38105;52.968;5.974;2022-10-19T11:02:37;7.43;;;1.10;;
52106;SDS011;38105;52.968;5.974;2022-10-19T11:07:50;15.93;;;1.55;;
52106;SDS011;38105;52.968;5.974;2022-10-19T11:10:35;6.30;;;1.30;;
52106;SDS011;38105;52.968;5.974;2022-10-19T11:13:09;8.83;;;1.50;;
52106;SDS011;38105;52.968;5.974;2022-10-19T11:16:11;7.18;;;1.23;;
52106;SDS011;38105;52.968;5.974;2022-10-19T11:18:45;11.20;;;1.58;;
52106;SDS011;38105;52.968;5.974;2022-10-19T11:21:16;9.48;;;1.35;;
52106;SDS011;38105;52.968;5.974;2022-10-19T11:29:57;10.88;;;1.52;;
52106;SDS011;38105;52.968;5.974;2022-10-19T11:32:44;17.73;;;1.77;;
52106;SDS011;38105;52.968;5.974;2022-10-19T11:37:59;11.05;;;1.38;;
52106;SDS011;38105;52.968;5.974;2022-10-19T11:47:12;9.45;;;1.30;;
52106;SDS011;38105;52.968;5.974;2022-10-19T11:56:01;13.05;;;1.83;;
52106;SDS011;38105;52.968;5.974;2022-10-19T12:11:34;11.73;;;1.20;;
52106;SDS011;38105;52.968;5.974;2022-10-19T12:14:21;11.70;;;1.30;;
52106;SDS011;38105;52.968;5.974;2022-10-19T12:16:54;11.63;;;1.77;;
52106;SDS011;38105;52.968;5.974;2022-10-19T12:22:00;7.73;;;1.40;;
52106;SDS011;38105;52.968;5.974;2022-10-19T12:24:28;8.32;;;1.40;;
52106;SDS011;38105;52.968;5.974;2022-10-19T12:26:56;8.05;;;1.02;;
52106;SDS011;38105;52.968;5.974;2022-10-19T12:29:28;9.50;;;1.23;;
52106;SDS011;38105;52.968;5.974;2022-10-19T12:31:58;9.63;;;1.55;;
52106;SDS011;38105;52.968;5.974;2022-10-19T12:34:38;11.27;;;1.92;;
52106;SDS011;38105;52.968;5.974;2022-10-19T12:37:40;10.07;;;1.80;;
52106;SDS011;38105;52.968;5.974;2022-10-19T12:49:19;16.02;;;2.13;;
52106;SDS011;38105;52.968;5.974;2022-10-19T12:51:52;9.13;;;1.33;;
52106;SDS011;38105;52.968;5.974;2022-10-19T12:54:23;9.63;;;1.27;;
52106;SDS011;38105;52.968;5.974;2022-10-19T12:56:51;10.93;;;1.38;;
52106;SDS011;38105;52.968;5.974;2022-10-19T12:59:21;11.40;;;1.63;;
52106;SDS011;38105;52.968;5.974;2022-10-19T13:01:49;6.75;;;1.30;;
52106;SDS011;38105;52.968;5.974;2022-10-19T13:04:20;6.25;;;1.10;;
52106;SDS011;38105;52.968;5.974;2022-10-19T13:07:14;8.30;;;1.27;;
52106;SDS011;38105;52.968;5.974;2022-10-19T13:09:43;7.93;;;1.20;;
52106;SDS011;38105;52.968;5.974;2022-10-19T13:17:08;8.18;;;1.40;;
52106;SDS011;38105;52.968;5.974;2022-10-19T13:19:34;15.63;;;1.67;;
52106;SDS011;38105;52.968;5.974;2022-10-19T13:29:27;7.95;;;1.63;;
52106;SDS011;38105;52.968;5.974;2022-10-19T13:38:09;8.63;;;1.25;;
52106;SDS011;38105;52.968;5.974;2022-10-19T13:43:20;10.30;;;1.38;;
52106;SDS011;38105;52.968;5.974;2022-10-19T13:48:54;7.95;;;1.02;;
52106;SDS011;38105;52.968;5.974;2022-10-19T14:07:54;7.72;;;1.10;;
52106;SDS011;38105;52.968;5.974;2022-10-19T14:10:31;9.60;;;1.00;;
52106;SDS011;38105;52.968;5.974;2022-10-19T14:12:58;9.27;;;1.00;;
52106;SDS011;38105;52.968;5.974;2022-10-19T14:15:27;9.45;;;1.23;;
52106;SDS011;38105;52.968;5.974;2022-10-19T14:17:55;13.85;;;1.92;;
52106;SDS011;38105;52.968;5.974;2022-10-19T14:22:57;10.88;;;1.20;;
52106;SDS011;38105;52.968;5.974;2022-10-19T14:26:29;10.27;;;1.67;;
52106;SDS011;38105;52.968;5.974;2022-10-19T14:28:35;4.60;;;0.90;;
52106;SDS011;38105;52.968;5.974;2022-10-19T14:31:03;9.20;;;0.90;;
52106;SDS011;38105;52.968;5.974;2022-10-19T14:33:32;10.90;;;1.52;;
52106;SDS011;38105;52.968;5.974;2022-10-19T14:36:00;10.60;;;1.40;;
52106;SDS011;38105;52.968;5.974;2022-10-19T14:41:00;9.05;;;1.20;;
52106;SDS011;38105;52.968;5.974;2022-10-19T14:43:28;8.88;;;1.38;;
52106;SDS011;38105;52.968;5.974;2022-10-19T14:46:29;6.10;;;1.20;;
52106;SDS011;38105;52.968;5.974;2022-10-19T14:48:56;7.53;;;0.90;;
52106;SDS011;38105;52.968;5.974;2022-10-19T14:54:13;9.30;;;1.80;;
52106;SDS011;38105;52.968;5.974;2022-10-19T14:57:00;8.50;;;1.02;;
52106;SDS011;38105;52.968;5.974;2022-10-19T14:59:42;9.02;;;1.25;;
52106;SDS011;38105;52.968;5.974;2022-10-19T15:02:21;7.57;;;2.00;;
52106;SDS011;38105;52.968;5.974;2022-10-19T15:04:49;11.55;;;1.52;;
52106;SDS011;38105;52.968;5.974;2022-10-19T15:07:23;6.55;;;1.52;;
52106;SDS011;38105;52.968;5.974;2022-10-19T15:09:58;8.25;;;1.50;;
52106;SDS011;38105;52.968;5.974;2022-10-19T15:12:27;9.55;;;2.00;;
52106;SDS011;38105;52.968;5.974;2022-10-19T15:14:58;7.60;;;1.23;;
52106;SDS011;38105;52.968;5.974;2022-10-19T15:17:28;7.00;;;1.40;;
52106;SDS011;38105;52.968;5.974;2022-10-19T15:19:56;10.10;;;1.70;;
52106;SDS011;38105;52.968;5.974;2022-10-19T15:22:35;9.98;;;2.20;;
52106;SDS011;38105;52.968;5.974;2022-10-19T15:27:34;8.48;;;2.08;;
52106;SDS011;38105;52.968;5.974;2022-10-19T15:32:43;8.98;;;2.30;;
52106;SDS011;38105;52.968;5.974;2022-10-19T15:35:11;9.82;;;2.40;;
52106;SDS011;38105;52.968;5.974;2022-10-19T15:37:44;14.63;;;3.08;;
52106;SDS011;38105;52.968;5.974;2022-10-19T15:40:21;20.60;;;10.57;;
52106;SDS011;38105;52.968;5.974;2022-10-19T15:42:59;23.92;;;14.43;;
52106;SDS011;38105;52.968;5.974;2022-10-19T15:45:29;14.10;;;3.40;;
52106;SDS011;38105;52.968;5.974;2022-10-19T15:50:44;8.27;;;3.53;;
52106;SDS011;38105;52.968;5.974;2022-10-19T15:53:12;29.13;;;22.70;;
52106;SDS011;38105;52.968;5.974;2022-10-19T15:55:38;13.77;;;7.28;;
52106;SDS011;38105;52.968;5.974;2022-10-19T15:58:04;15.13;;;4.70;;
52106;SDS011;38105;52.968;5.974;2022-10-19T16:00:30;9.90;;;3.30;;
52106;SDS011;38105;52.968;5.974;2022-10-19T16:02:56;14.68;;;3.53;;
52106;SDS011;38105;52.968;5.974;2022-10-19T16:05:22;10.90;;;3.30;;
52106;SDS011;38105;52.968;5.974;2022-10-19T16:07:48;8.93;;;3.30;;
52106;SDS011;38105;52.968;5.974;2022-10-19T16:10:15;12.07;;;3.50;;
52106;SDS011;38105;52.968;5.974;2022-10-19T16:12:44;8.45;;;3.60;;
52106;SDS011;38105;52.968;5.974;2022-10-19T16:15:12;11.80;;;3.67;;
52106;SDS011;38105;52.968;5.974;2022-10-19T16:17:47;10.32;;;3.78;;
52106;SDS011;38105;52.968;5.974;2022-10-19T16:20:17;10.93;;;3.83;;
52106;SDS011;38105;52.968;5.974;2022-10-19T16:22:43;14.07;;;3.75;;
52106;SDS011;38105;52.968;5.974;2022-10-19T16:25:09;12.32;;;3.47;;
52106;SDS011;38105;52.968;5.974;2022-10-19T16:27:35;9.38;;;4.20;;
52106;SDS011;38105;52.968;5.974;2022-10-19T16:30:05;13.85;;;4.57;;
52106;SDS011;38105;52.968;5.974;2022-10-19T16:32:31;19.65;;;4.45;;
52106;SDS011;38105;52.968;5.974;2022-10-19T16:34:57;10.32;;;4.35;;
52106;SDS011;38105;52.968;5.974;2022-10-19T16:37:23;13.32;;;5.10;;
52106;SDS011;38105;52.968;5.974;2022-10-19T16:39:48;12.82;;;4.90;;
52106;SDS011;38105;52.968;5.974;2022-10-19T16:42:14;12.50;;;5.80;;
52106;SDS011;38105;52.968;5.974;2022-10-19T16:44:40;10.38;;;5.93;;
52106;SDS011;38105;52.968;5.974;2022-10-19T16:47:05;12.00;;;5.65;;
52106;SDS011;38105;52.968;5.974;2022-10-19T16:49:31;17.67;;;6.53;;
52106;SDS011;38105;52.968;5.974;2022-10-19T16:51:57;12.05;;;6.35;;
52106;SDS011;38105;52.968;5.974;2022-10-19T16:54:24;16.30;;;9.52;;
52106;SDS011;38105;52.968;5.974;2022-10-19T16:56:51;13.30;;;6.65;;
52106;SDS011;38105;52.968;5.974;2022-10-19T16:59:17;19.40;;;8.80;;
52106;SDS011;38105;52.968;5.974;2022-10-19T17:01:43;13.07;;;7.97;;
52106;SDS011;38105;52.968;5.974;2022-10-19T17:04:10;14.18;;;8.70;;
52106;SDS011;38105;52.968;5.974;2022-10-19T17:06:36;11.70;;;7.60;;
52106;SDS011;38105;52.968;5.974;2022-10-19T17:09:03;15.88;;;10.70;;
52106;SDS011;38105;52.968;5.974;2022-10-19T17:11:30;15.93;;;10.10;;
52106;SDS011;38105;52.968;5.974;2022-10-19T17:13:58;12.35;;;8.45;;
52106;SDS011;38105;52.968;5.974;2022-10-19T17:16:26;15.93;;;8.68;;
52106;SDS011;38105;52.968;5.974;2022-10-19T17:18:54;16.17;;;8.27;;
52106;SDS011;38105;52.968;5.974;2022-10-19T17:21:21;13.88;;;8.00;;
52106;SDS011;38105;52.968;5.974;2022-10-19T17:23:53;15.50;;;7.60;;
52106;SDS011;38105;52.968;5.974;2022-10-19T17:26:25;11.07;;;7.13;;
52106;SDS011;38105;52.968;5.974;2022-10-19T17:28:55;11.38;;;7.35;;
52106;SDS011;38105;52.968;5.974;2022-10-19T17:31:23;11.80;;;6.63;;
52106;SDS011;38105;52.968;5.974;2022-10-19T17:33:50;12.73;;;6.45;;
52106;SDS011;38105;52.968;5.974;2022-10-19T17:36:20;9.57;;;5.95;;
52106;SDS011;38105;52.968;5.974;2022-10-19T17:38:54;17.25;;;6.30;;